Time;durP1;ratioP1;P1;durP2;ratioP2;P2;SDS_P1;SDS_P2;PMS_P1;PMS_P2;Temp;Humidity;BMP_temperature;BMP_pressure;BME280_temperature;BME280_humidity;BME280_pressure;Samples;Min_cycle;Max_cycle;Signal;HPM_P1;HPM_P2
2021/11/20 00:01:52;;;;;;;1.60;1.10;;;11.00;98.20;;;;;;4906548;29;20483;-76
2021/11/20 00:04:20;;;;;;;1.60;1.20;;;11.00;98.20;;;;;;4914301;29;20476;-76
2021/11/20 00:06:49;;;;;;;1.60;1.10;;;11.00;98.20;;;;;;4899539;29;20488;-76
2021/11/20 00:09:18;;;;;;;1.60;1.20;;;11.00;98.20;;;;;;4911241;29;20989;-76
2021/11/20 00:11:47;;;;;;;1.60;1.10;;;11.00;98.20;;;;;;4903184;29;20484;-76
2021/11/20 00:14:15;;;;;;;1.60;1.10;;;11.00;98.20;;;;;;4909200;29;20470;-76
2021/11/20 00:16:44;;;;;;;1.60;1.20;;;11.00;98.20;;;;;;4907530;29;20491;-76
2021/11/20 00:19:14;;;;;;;1.60;1.17;;;11.00;98.20;;;;;;4914831;29;20581;-76
2021/11/20 00:21:45;;;;;;;1.60;1.10;;;11.00;98.20;;;;;;4906494;29;20487;-76
2021/11/20 00:24:19;;;;;;;1.60;1.10;;;11.00;98.20;;;;;;4914097;29;20469;-76
2021/11/20 00:26:46;;;;;;;1.63;1.20;;;10.90;98.20;;;;;;4900329;29;20487;-76
2021/11/20 00:29:26;;;;;;;1.60;1.10;;;11.00;98.20;;;;;;4917700;29;20989;-76
2021/11/20 00:31:57;;;;;;;1.60;1.10;;;11.00;98.20;;;;;;4908847;29;20566;-76
2021/11/20 00:34:28;;;;;;;1.60;1.10;;;11.00;98.20;;;;;;4914249;29;20464;-76
2021/11/20 00:36:56;;;;;;;1.60;1.10;;;11.00;98.20;;;;;;4897316;29;20488;-76
2021/11/20 00:39:25;;;;;;;1.60;1.10;;;11.00;98.20;;;;;;4908559;29;20477;-76
2021/11/20 00:41:53;;;;;;;1.60;1.00;;;11.00;98.20;;;;;;4897345;29;20488;-76
2021/11/20 00:44:20;;;;;;;1.60;1.10;;;11.00;98.20;;;;;;4906337;29;20468;-76
2021/11/20 00:46:49;;;;;;;1.60;1.10;;;11.00;98.20;;;;;;4907646;29;21177;-76
2021/11/20 00:49:17;;;;;;;1.60;1.10;;;11.00;98.20;;;;;;4911066;29;20479;-76
2021/11/20 00:51:46;;;;;;;1.60;1.10;;;10.90;98.20;;;;;;4904848;29;20484;-76
2021/11/20 00:54:13;;;;;;;1.60;1.10;;;10.90;98.20;;;;;;4915040;29;20469;-76
2021/11/20 00:56:40;;;;;;;1.60;1.10;;;11.00;98.20;;;;;;4898610;29;20491;-76
2021/11/20 00:59:08;;;;;;;1.60;1.10;;;11.00;98.20;;;;;;4918184;29;20468;-76
2021/11/20 01:01:39;;;;;;;1.60;1.13;;;10.90;98.20;;;;;;4899133;29;20485;-76
2021/11/20 01:04:07;;;;;;;1.60;1.20;;;10.90;98.20;;;;;;4909423;29;20525;-76
2021/11/20 01:06:35;;;;;;;1.60;1.20;;;10.90;98.20;;;;;;4899712;29;20914;-76
2021/11/20 01:09:04;;;;;;;1.60;1.10;;;11.00;98.20;;;;;;4911869;29;20468;-76
2021/11/20 01:11:34;;;;;;;1.60;1.20;;;10.90;98.20;;;;;;4904240;29;20484;-76
2021/11/20 01:14:04;;;;;;;1.60;1.20;;;10.90;98.20;;;;;;4910692;29;20473;-76
2021/11/20 01:16:31;;;;;;;1.60;1.10;;;10.90;98.20;;;;;;4909572;29;20510;-76
2021/11/20 01:19:01;;;;;;;1.60;1.10;;;10.90;98.20;;;;;;4918431;29;20464;-76
2021/11/20 01:21:29;;;;;;;1.60;1.10;;;10.90;98.20;;;;;;4905715;29;20479;-77
2021/11/20 01:23:56;;;;;;;1.60;1.10;;;10.90;98.20;;;;;;4922901;29;20468;-76
2021/11/20 01:26:24;;;;;;;1.60;1.10;;;10.90;98.20;;;;;;4904441;29;20493;-76
2021/11/20 01:28:57;;;;;;;1.60;1.20;;;10.90;98.20;;;;;;4918732;29;20471;-76
2021/11/20 01:31:27;;;;;;;1.60;1.10;;;10.90;98.20;;;;;;4903868;29;20905;-77
2021/11/20 01:33:55;;;;;;;1.60;1.10;;;10.90;98.20;;;;;;4912510;29;20602;-77
2021/11/20 01:36:24;;;;;;;1.60;1.10;;;10.90;98.20;;;;;;4903530;29;20499;-76
2021/11/20 01:38:52;;;;;;;1.60;1.10;;;10.90;98.20;;;;;;4913583;29;20468;-77
2021/11/20 01:41:20;;;;;;;1.60;1.10;;;10.90;98.20;;;;;;4908924;29;20872;-77
2021/11/20 01:43:51;;;;;;;1.60;1.10;;;10.90;98.20;;;;;;4919903;29;20468;-76
2021/11/20 01:46:21;;;;;;;1.60;1.10;;;10.90;98.20;;;;;;4902266;29;20502;-77
2021/11/20 01:48:57;;;;;;;1.60;1.20;;;10.90;98.20;;;;;;4920961;29;20977;-76
2021/11/20 01:51:29;;;;;;;1.60;1.10;;;10.90;98.20;;;;;;4900259;29;20484;-77
2021/11/20 01:54:08;;;;;;;1.60;1.10;;;10.90;98.20;;;;;;4905223;29;20489;-76
2021/11/20 01:56:43;;;;;;;1.60;1.20;;;10.80;98.20;;;;;;4900048;29;20884;-77
2021/11/20 01:59:19;;;;;;;1.60;1.20;;;10.90;98.20;;;;;;4909422;29;20464;-76
2021/11/20 02:01:49;;;;;;;1.60;1.20;;;10.80;98.20;;;;;;4900169;29;20487;-77
2021/11/20 02:04:23;;;;;;;1.63;1.20;;;10.90;98.20;;;;;;4912816;29;20483;-77
2021/11/20 02:06:55;;;;;;;1.60;1.10;;;10.90;98.20;;;;;;4908758;29;20487;-77
2021/11/20 02:09:27;;;;;;;1.60;1.20;;;10.90;98.20;;;;;;4916942;29;20958;-76
2021/11/20 02:11:58;;;;;;;1.60;1.10;;;10.90;98.20;;;;;;4903237;29;20484;-76
2021/11/20 02:14:29;;;;;;;1.60;1.10;;;10.90;98.20;;;;;;4912874;29;20468;-76
2021/11/20 02:16:59;;;;;;;1.60;1.10;;;10.80;98.20;;;;;;4908777;29;20495;-77
2021/11/20 02:19:31;;;;;;;1.60;1.20;;;10.90;98.20;;;;;;4916726;29;20476;-77
2021/11/20 02:22:03;;;;;;;1.60;1.10;;;10.80;98.20;;;;;;4912810;29;21017;-77
2021/11/20 02:24:29;;;;;;;1.60;1.07;;;10.90;98.20;;;;;;4914704;29;21129;-75
2021/11/20 02:26:56;;;;;;;1.60;1.10;;;10.80;98.20;;;;;;4901525;29;20480;-75
2021/11/20 02:29:24;;;;;;;1.60;1.17;;;10.80;98.20;;;;;;4916806;29;20817;-75
2021/11/20 02:31:56;;;;;;;1.60;1.10;;;10.80;98.20;;;;;;4911518;29;20487;-75
2021/11/20 02:34:27;;;;;;;1.60;1.10;;;10.80;98.20;;;;;;4916527;29;20468;-75
2021/11/20 02:36:54;;;;;;;1.60;1.10;;;10.80;98.20;;;;;;4905581;29;20921;-75
2021/11/20 02:39:23;;;;;;;1.60;1.20;;;10.80;98.20;;;;;;4912544;29;20501;-75
2021/11/20 02:41:52;;;;;;;1.60;1.13;;;10.80;98.20;;;;;;4903909;29;20477;-77
2021/11/20 02:44:21;;;;;;;1.63;1.20;;;10.80;98.20;;;;;;4907073;29;20465;-77
2021/11/20 02:46:50;;;;;;;1.60;1.10;;;10.80;98.20;;;;;;4902058;29;21255;-75
2021/11/20 02:49:18;;;;;;;1.60;1.10;;;10.80;98.20;;;;;;4908144;29;20469;-75
2021/11/20 02:51:48;;;;;;;1.60;1.27;;;10.80;98.20;;;;;;4902764;29;20900;-74
2021/11/20 02:54:18;;;;;;;1.60;1.30;;;10.80;98.20;;;;;;4910587;29;20480;-75
2021/11/20 02:56:50;;;;;;;6.17;2.80;;;10.80;98.20;;;;;;4890991;29;20496;-75
2021/11/20 02:59:17;;;;;;;1.60;1.10;;;10.80;98.20;;;;;;4915289;29;20467;-74
2021/11/20 03:01:46;;;;;;;1.60;1.10;;;10.80;98.20;;;;;;4901738;29;20488;-74
2021/11/20 03:04:15;;;;;;;1.60;1.20;;;10.80;98.20;;;;;;4911141;29;20974;-76
2021/11/20 03:06:43;;;;;;;1.60;1.10;;;10.80;98.20;;;;;;4909783;29;20483;-76
2021/11/20 03:09:13;;;;;;;1.60;1.10;;;10.70;98.20;;;;;;4920607;29;20468;-77
2021/11/20 03:11:41;;;;;;;1.60;1.20;;;10.70;98.20;;;;;;4895993;29;20917;-76
2021/11/20 03:14:10;;;;;;;1.60;1.10;;;10.70;98.20;;;;;;4905729;29;20469;-77
2021/11/20 03:16:38;;;;;;;1.90;1.60;;;10.70;98.20;;;;;;4900136;29;20548;-76
2021/11/20 03:19:06;;;;;;;1.60;1.20;;;10.70;98.20;;;;;;4911580;29;20556;-77
2021/11/20 03:21:34;;;;;;;1.60;1.20;;;10.70;98.20;;;;;;4904981;29;20481;-77
2021/11/20 03:24:06;;;;;;;1.60;1.10;;;10.70;98.20;;;;;;4911406;29;21133;-77
2021/11/20 03:26:33;;;;;;;1.60;1.10;;;10.80;98.20;;;;;;4900908;29;20502;-77
2021/11/20 03:28:59;;;;;;;1.70;1.40;;;10.70;98.20;;;;;;4913175;29;20484;-77
2021/11/20 03:31:27;;;;;;;1.60;1.20;;;10.70;98.20;;;;;;4901529;29;20497;-77
2021/11/20 03:33:53;;;;;;;1.60;1.10;;;10.70;98.20;;;;;;4910876;29;20469;-77
2021/11/20 03:36:20;;;;;;;1.60;1.13;;;10.70;98.20;;;;;;4900167;29;20488;-77
2021/11/20 03:38:48;;;;;;;1.60;1.10;;;10.70;98.20;;;;;;4911482;29;20471;-77
2021/11/20 03:41:16;;;;;;;1.60;1.20;;;10.70;98.20;;;;;;4902226;29;21317;-77
2021/11/20 03:43:44;;;;;;;1.60;1.20;;;10.70;98.20;;;;;;4911144;29;20465;-77
2021/11/20 03:46:10;;;;;;;1.60;1.17;;;10.70;98.20;;;;;;4900249;29;20492;-76
2021/11/20 03:48:37;;;;;;;1.60;1.10;;;10.70;98.20;;;;;;4911616;29;20460;-77
2021/11/20 03:51:04;;;;;;;1.60;1.10;;;10.70;98.20;;;;;;4903708;29;20475;-77
2021/11/20 03:53:31;;;;;;;1.60;1.20;;;10.70;98.20;;;;;;4911113;29;20464;-77
2021/11/20 03:55:58;;;;;;;1.60;1.10;;;10.70;98.20;;;;;;4897789;29;20498;-77
2021/11/20 03:58:27;;;;;;;1.60;1.10;;;10.70;98.20;;;;;;4921672;29;20969;-76
2021/11/20 04:00:56;;;;;;;1.63;1.20;;;10.70;98.20;;;;;;4899671;29;20472;-77
2021/11/20 04:03:23;;;;;;;1.60;1.10;;;10.70;98.20;;;;;;4908769;29;20480;-77
2021/11/20 04:05:50;;;;;;;2.27;2.07;;;10.70;98.20;;;;;;4898959;29;20675;-77
2021/11/20 04:08:17;;;;;;;1.60;1.10;;;10.70;98.20;;;;;;4910783;29;20472;-77
2021/11/20 04:10:45;;;;;;;1.60;1.10;;;10.70;98.20;;;;;;4909890;29;20464;-76
2021/11/20 04:13:12;;;;;;;1.60;1.10;;;10.70;98.20;;;;;;4894191;29;20982;-75
2021/11/20 04:15:41;;;;;;;1.60;1.20;;;10.70;98.20;;;;;;4910828;29;20476;-76
2021/11/20 04:18:08;;;;;;;1.60;1.10;;;10.70;98.20;;;;;;4892729;29;20496;-77
2021/11/20 04:20:35;;;;;;;2.53;2.33;;;10.70;98.20;;;;;;4910676;29;20464;-75
2021/11/20 04:23:04;;;;;;;1.60;1.20;;;10.70;98.20;;;;;;4892763;29;20487;-76
2021/11/20 04:25:31;;;;;;;1.60;1.10;;;10.60;98.20;;;;;;4910183;29;20465;-77
2021/11/20 04:27:59;;;;;;;1.60;1.20;;;10.70;98.20;;;;;;4915905;29;20542;-76
2021/11/20 04:30:26;;;;;;;1.60;1.20;;;10.70;98.20;;;;;;4908840;29;21077;-77
2021/11/20 04:32:54;;;;;;;1.60;1.17;;;10.70;98.20;;;;;;4900420;29;20503;-75
2021/11/20 04:35:24;;;;;;;1.60;1.20;;;10.70;98.20;;;;;;4912185;29;20460;-76
2021/11/20 04:37:51;;;;;;;1.60;1.10;;;10.70;98.20;;;;;;4914376;29;20487;-76
2021/11/20 04:40:20;;;;;;;1.60;1.10;;;10.70;98.20;;;;;;4906451;29;21217;-76
2021/11/20 04:42:47;;;;;;;1.60;1.10;;;10.70;98.20;;;;;;4898419;29;20540;-75
2021/11/20 04:45:16;;;;;;;1.60;1.20;;;10.70;98.20;;;;;;4910170;29;20501;-75
2021/11/20 04:47:44;;;;;;;1.60;1.10;;;10.70;98.20;;;;;;4913342;29;20479;-75
2021/11/20 04:50:13;;;;;;;1.60;1.10;;;10.60;98.20;;;;;;4902564;29;20470;-75
2021/11/20 04:52:40;;;;;;;1.60;1.10;;;10.60;98.20;;;;;;4896761;29;20489;-75
2021/11/20 04:55:10;;;;;;;1.60;1.10;;;10.60;98.20;;;;;;4907303;29;20464;-75
2021/11/20 04:57:37;;;;;;;1.60;1.10;;;10.60;98.20;;;;;;4903934;29;20575;-75
2021/11/20 05:00:07;;;;;;;1.60;1.20;;;10.60;98.20;;;;;;4909078;29;20469;-75
2021/11/20 05:02:34;;;;;;;1.60;1.10;;;10.60;98.20;;;;;;4907413;29;20490;-75
2021/11/20 05:05:01;;;;;;;1.60;1.20;;;10.60;98.20;;;;;;4903576;29;20472;-76
2021/11/20 05:07:29;;;;;;;1.60;1.10;;;10.60;98.20;;;;;;4898404;29;20502;-77
2021/11/20 05:09:56;;;;;;;1.60;1.10;;;10.60;98.20;;;;;;4904697;29;20900;-77
2021/11/20 05:12:23;;;;;;;1.60;1.13;;;10.60;98.20;;;;;;4896518;29;20484;-77
2021/11/20 05:14:50;;;;;;;1.60;1.10;;;10.60;98.20;;;;;;4905271;29;20464;-77
2021/11/20 05:17:17;;;;;;;1.60;1.10;;;10.60;98.20;;;;;;4909121;29;20483;-77
2021/11/20 05:19:44;;;;;;;1.60;1.17;;;10.60;98.20;;;;;;4912412;29;20469;-76
2021/11/20 05:22:11;;;;;;;1.60;1.20;;;10.60;98.20;;;;;;4911016;29;20554;-77
2021/11/20 05:24:39;;;;;;;1.60;1.13;;;10.60;98.20;;;;;;4911396;29;20465;-77
2021/11/20 05:27:07;;;;;;;1.60;1.20;;;10.60;98.20;;;;;;4897475;29;20504;-77
2021/11/20 05:29:39;;;;;;;1.60;1.10;;;10.60;98.20;;;;;;4908211;29;20464;-76
2021/11/20 05:32:07;;;;;;;1.60;1.10;;;10.60;98.20;;;;;;4893286;29;20569;-76
2021/11/20 05:34:34;;;;;;;1.60;1.13;;;10.60;98.20;;;;;;4902989;29;20495;-74
2021/11/20 05:37:01;;;;;;;1.60;1.10;;;10.60;98.20;;;;;;4896410;29;20843;-76
2021/11/20 05:39:28;;;;;;;1.60;1.10;;;10.60;98.20;;;;;;4910196;29;21024;-76
2021/11/20 05:41:56;;;;;;;1.60;1.10;;;10.60;98.20;;;;;;4899438;29;21005;-76
2021/11/20 05:44:23;;;;;;;1.60;1.10;;;10.60;98.20;;;;;;4908872;29;20563;-76
2021/11/20 05:46:51;;;;;;;1.60;1.10;;;10.60;98.20;;;;;;4898917;29;20489;-76
2021/11/20 05:49:18;;;;;;;1.60;1.10;;;10.60;98.20;;;;;;4909718;29;21010;-76
2021/11/20 05:51:45;;;;;;;1.60;1.20;;;10.60;98.20;;;;;;4900039;29;20500;-76
2021/11/20 05:54:12;;;;;;;1.60;1.20;;;10.60;98.20;;;;;;4905187;29;20468;-76
2021/11/20 05:56:39;;;;;;;1.60;1.10;;;10.50;98.20;;;;;;4901141;29;20479;-76
2021/11/20 05:59:07;;;;;;;1.60;1.30;;;10.60;98.20;;;;;;4921511;29;20464;-75
2021/11/20 06:01:34;;;;;;;1.60;1.20;;;10.60;98.20;;;;;;4908083;29;20491;-76
2021/11/20 06:04:01;;;;;;;1.60;1.10;;;10.50;98.20;;;;;;4914468;29;20480;-77
2021/11/20 06:06:27;;;;;;;1.60;1.20;;;10.50;98.20;;;;;;4895517;29;20985;-77
2021/11/20 06:08:54;;;;;;;1.60;1.10;;;10.50;98.20;;;;;;4909488;29;20469;-74
2021/11/20 06:11:21;;;;;;;1.60;1.17;;;10.50;98.20;;;;;;4896062;29;20489;-75
2021/11/20 06:13:48;;;;;;;1.60;1.10;;;10.50;98.20;;;;;;4906566;29;20460;-76
2021/11/20 06:16:16;;;;;;;1.60;1.10;;;10.50;98.20;;;;;;4903578;29;20492;-76
2021/11/20 06:18:43;;;;;;;1.60;1.20;;;10.50;98.20;;;;;;4918411;29;20847;-76
2021/11/20 06:21:10;;;;;;;1.60;1.20;;;10.50;98.20;;;;;;4893919;29;20492;-76
2021/11/20 06:23:38;;;;;;;1.60;1.20;;;10.50;98.20;;;;;;4909946;29;20468;-76
2021/11/20 06:26:07;;;;;;;1.63;1.20;;;10.50;98.20;;;;;;4892689;29;20476;-77
2021/11/20 06:28:34;;;;;;;1.60;1.10;;;10.50;98.20;;;;;;4908241;29;20863;-77
2021/11/20 06:31:01;;;;;;;1.60;1.20;;;10.50;98.20;;;;;;4897549;29;20472;-76
2021/11/20 06:33:30;;;;;;;1.60;1.20;;;10.50;98.20;;;;;;4922006;29;20472;-76
2021/11/20 06:35:57;;;;;;;1.60;1.20;;;10.50;98.20;;;;;;4895622;29;20480;-74
2021/11/20 06:38:25;;;;;;;1.60;1.20;;;10.50;98.20;;;;;;4910132;29;20503;-77
2021/11/20 06:40:54;;;;;;;1.60;1.20;;;10.50;98.20;;;;;;4900931;29;20495;-76
2021/11/20 06:43:23;;;;;;;1.60;1.20;;;10.50;98.20;;;;;;4923146;29;20799;-76
2021/11/20 06:45:54;;;;;;;1.60;1.20;;;10.50;98.20;;;;;;4899950;29;20475;-76
2021/11/20 06:48:22;;;;;;;1.60;1.20;;;10.50;98.20;;;;;;4909044;29;20468;-76
2021/11/20 06:50:52;;;;;;;1.60;1.10;;;10.50;98.20;;;;;;4903676;29;20886;-74
2021/11/20 06:53:20;;;;;;;1.60;1.10;;;10.50;98.20;;;;;;4921858;29;20473;-75
2021/11/20 06:55:47;;;;;;;1.60;1.13;;;10.50;98.20;;;;;;4909016;29;20476;-74
2021/11/20 06:58:32;;;;;;;1.60;1.10;;;10.50;98.20;;;;;;4916758;29;20493;-75
2021/11/20 07:01:02;;;;;;;1.60;1.20;;;10.50;98.20;;;;;;4898297;29;20464;-76
2021/11/20 07:03:32;;;;;;;1.60;1.20;;;10.50;98.20;;;;;;4905728;29;21320;-76
2021/11/20 07:06:03;;;;;;;1.60;1.20;;;10.50;98.20;;;;;;4895281;29;20504;-77
2021/11/20 07:08:31;;;;;;;1.60;1.20;;;10.50;98.20;;;;;;4910638;29;20974;-77
2021/11/20 07:10:59;;;;;;;1.60;1.10;;;10.50;98.20;;;;;;4903257;29;20563;-75
2021/11/20 07:13:26;;;;;;;1.60;1.20;;;10.50;98.20;;;;;;4924905;29;20506;-76
2021/11/20 07:15:54;;;;;;;1.83;1.63;;;10.50;98.20;;;;;;4893117;29;20467;-77
2021/11/20 07:18:22;;;;;;;1.97;1.77;;;10.50;98.20;;;;;;4906207;29;20595;-76
2021/11/20 07:20:49;;;;;;;1.60;1.20;;;10.50;98.20;;;;;;4895697;29;20962;-77
2021/11/20 07:23:18;;;;;;;1.60;1.20;;;10.50;98.20;;;;;;4904915;29;20472;-75
2021/11/20 07:25:46;;;;;;;1.70;1.30;;;10.50;98.20;;;;;;4897266;29;20473;-76
2021/11/20 07:28:13;;;;;;;1.60;1.20;;;10.50;98.20;;;;;;4897154;29;20488;-74
2021/11/20 07:30:42;;;;;;;1.60;1.10;;;10.50;98.20;;;;;;4902099;29;20465;-74
2021/11/20 07:33:10;;;;;;;1.63;1.20;;;10.50;98.20;;;;;;4892578;29;20525;-74
2021/11/20 07:35:39;;;;;;;1.60;1.10;;;10.50;98.20;;;;;;4905305;29;20494;-74
2021/11/20 07:38:08;;;;;;;1.60;1.10;;;10.50;98.20;;;;;;4904092;29;20476;-74
2021/11/20 07:40:38;;;;;;;1.60;1.17;;;10.50;98.20;;;;;;4904470;29;20473;-74
2021/11/20 07:43:05;;;;;;;1.60;1.20;;;10.50;98.20;;;;;;4911396;29;20542;-76
2021/11/20 07:45:32;;;;;;;1.90;1.70;;;10.50;98.20;;;;;;4903909;29;21317;-76
2021/11/20 07:48:04;;;;;;;1.60;1.20;;;10.50;98.20;;;;;;4911165;29;20948;-76
2021/11/20 07:50:31;;;;;;;1.60;1.20;;;10.50;98.20;;;;;;4901141;29;20469;-76
2021/11/20 07:52:58;;;;;;;1.67;1.23;;;10.50;98.20;;;;;;4904681;29;20487;-76
2021/11/20 07:55:24;;;;;;;1.63;1.30;;;10.50;98.20;;;;;;4903963;29;20475;-76
2021/11/20 07:57:53;;;;;;;1.60;1.20;;;10.60;98.20;;;;;;4906358;29;20490;-76
2021/11/20 08:00:22;;;;;;;1.60;1.10;;;10.60;98.20;;;;;;4904231;29;20483;-75
2021/11/20 08:02:49;;;;;;;1.70;1.20;;;10.60;98.20;;;;;;4888610;29;20489;-76
2021/11/20 08:05:16;;;;;;;1.60;1.10;;;10.60;98.20;;;;;;4899826;29;20966;-76
2021/11/20 08:07:43;;;;;;;1.60;1.20;;;10.60;98.20;;;;;;4906811;29;20874;-76
2021/11/20 08:10:12;;;;;;;1.60;1.20;;;10.60;98.20;;;;;;4904392;29;20473;-76
2021/11/20 08:12:39;;;;;;;1.60;1.20;;;10.60;98.20;;;;;;4906294;29;21836;-76
2021/11/20 08:15:08;;;;;;;1.67;1.30;;;10.60;98.20;;;;;;4907533;29;20993;-76
2021/11/20 08:17:35;;;;;;;1.60;1.10;;;10.70;98.20;;;;;;4908316;29;21104;-76
2021/11/20 08:20:02;;;;;;;1.60;1.10;;;10.70;98.20;;;;;;4907976;29;20469;-76
2021/11/20 08:22:29;;;;;;;1.60;1.10;;;10.70;98.20;;;;;;4909904;29;20487;-76
2021/11/20 08:24:56;;;;;;;1.60;1.10;;;10.70;98.20;;;;;;4903112;29;20469;-76
2021/11/20 08:27:23;;;;;;;1.60;1.10;;;10.70;98.20;;;;;;4907020;29;20488;-76
2021/11/20 08:29:50;;;;;;;1.60;1.10;;;10.70;98.20;;;;;;4908721;29;20551;-76
2021/11/20 08:32:18;;;;;;;1.63;1.20;;;10.70;98.20;;;;;;4890180;29;20496;-76
2021/11/20 08:34:45;;;;;;;1.60;1.10;;;10.70;98.20;;;;;;4898800;29;20506;-76
2021/11/20 08:37:13;;;;;;;1.60;1.20;;;10.70;98.20;;;;;;4891573;29;20887;-76
2021/11/20 08:39:39;;;;;;;1.60;1.10;;;10.80;98.20;;;;;;4902428;29;20484;-76
2021/11/20 08:42:07;;;;;;;1.60;1.20;;;10.80;98.20;;;;;;4902234;29;20498;-76
2021/11/20 08:44:34;;;;;;;1.60;1.10;;;10.80;98.20;;;;;;4907452;29;20493;-77
2021/11/20 08:47:03;;;;;;;1.60;1.20;;;10.80;98.20;;;;;;4900306;29;20484;-76
2021/11/20 08:49:31;;;;;;;1.60;1.20;;;10.80;98.20;;;;;;4911516;29;20558;-76
2021/11/20 08:51:58;;;;;;;1.60;1.10;;;10.80;98.20;;;;;;4902942;29;20724;-74
2021/11/20 08:54:27;;;;;;;1.60;1.10;;;10.80;98.20;;;;;;4907766;29;20472;-76
2021/11/20 08:56:55;;;;;;;1.60;1.13;;;10.90;98.20;;;;;;4900690;29;20578;-76
2021/11/20 08:59:24;;;;;;;1.60;1.10;;;10.90;98.20;;;;;;4896556;29;20488;-76
2021/11/20 09:01:53;;;;;;;1.60;1.20;;;10.90;98.20;;;;;;4883191;29;20480;-77
2021/11/20 09:04:25;;;;;;;1.60;1.10;;;10.90;98.20;;;;;;4891193;29;20477;-77
2021/11/20 09:06:57;;;;;;;1.60;1.10;;;11.00;98.20;;;;;;4892739;29;20492;-77
2021/11/20 09:09:29;;;;;;;1.60;1.10;;;11.00;98.20;;;;;;4900952;29;20508;-75
2021/11/20 09:12:03;;;;;;;1.60;1.10;;;11.00;98.20;;;;;;4896390;29;20511;-76
2021/11/20 09:14:33;;;;;;;1.60;1.10;;;11.00;98.20;;;;;;4900068;29;20477;-74
2021/11/20 09:17:01;;;;;;;1.60;1.10;;;11.00;98.20;;;;;;4882132;29;20492;-75
2021/11/20 09:19:28;;;;;;;1.60;1.10;;;11.00;98.20;;;;;;4893454;29;20994;-77
2021/11/20 09:21:58;;;;;;;1.60;1.10;;;11.00;98.20;;;;;;4898192;29;21012;-77
2021/11/20 09:24:25;;;;;;;1.60;1.17;;;11.10;98.20;;;;;;4902896;29;20966;-75
2021/11/20 09:26:52;;;;;;;1.60;1.10;;;11.10;98.20;;;;;;4883433;29;20497;-75
2021/11/20 09:29:20;;;;;;;1.60;1.17;;;11.10;98.20;;;;;;4896774;29;20540;-76
2021/11/20 09:31:47;;;;;;;1.60;1.10;;;11.10;98.20;;;;;;4897474;29;20518;-77
2021/11/20 09:34:16;;;;;;;1.60;1.20;;;11.10;98.20;;;;;;4907469;29;20862;-77
2021/11/20 09:36:45;;;;;;;1.60;1.17;;;11.20;98.20;;;;;;4885792;29;20500;-78
2021/11/20 09:39:15;;;;;;;1.60;1.10;;;11.20;98.20;;;;;;4904183;29;20496;-77
2021/11/20 09:42:08;;;;;;;2.03;1.83;;;11.20;98.20;;;;;;4884005;29;20515;-77
2021/11/20 09:44:38;;;;;;;1.60;1.10;;;11.20;98.20;;;;;;4881813;29;20906;-78
2021/11/20 09:47:11;;;;;;;1.60;1.10;;;11.30;98.20;;;;;;4883228;29;20552;-78
2021/11/20 09:49:43;;;;;;;1.60;1.20;;;11.30;98.20;;;;;;4896213;29;20524;-75
2021/11/20 09:52:10;;;;;;;1.60;1.10;;;11.40;98.20;;;;;;4885505;29;20484;-75
2021/11/20 09:54:41;;;;;;;1.60;1.03;;;11.40;98.20;;;;;;4895115;29;20476;-77
2021/11/20 09:57:24;;;;;;;1.60;1.10;;;11.40;98.20;;;;;;4898414;29;20499;-77
2021/11/20 09:59:55;;;;;;;1.60;1.10;;;11.40;98.20;;;;;;4900306;29;20492;-78
2021/11/20 10:02:25;;;;;;;1.60;1.10;;;11.50;98.20;;;;;;4902483;29;20479;-77
2021/11/20 10:04:57;;;;;;;1.60;1.10;;;11.50;98.20;;;;;;4902093;29;20481;-78
2021/11/20 10:07:28;;;;;;;1.60;1.10;;;11.50;98.20;;;;;;4900281;29;20487;-80
2021/11/20 10:10:01;;;;;;;1.60;1.20;;;11.50;98.20;;;;;;4900495;29;20561;-80
2021/11/20 10:12:33;;;;;;;1.60;1.10;;;11.50;98.20;;;;;;4900475;29;20610;-78
2021/11/20 10:15:07;;;;;;;1.60;1.10;;;11.60;98.20;;;;;;4900645;29;20472;-79
2021/11/20 10:17:41;;;;;;;1.60;1.10;;;11.60;98.20;;;;;;4890608;29;20619;-78
2021/11/20 10:20:23;;;;;;;1.60;1.10;;;11.60;98.20;;;;;;4897279;29;20473;-78
2021/11/20 10:22:56;;;;;;;1.60;1.10;;;11.60;98.20;;;;;;4887586;29;20488;-77
2021/11/20 10:25:35;;;;;;;1.60;1.00;;;11.60;98.20;;;;;;4896687;29;20475;-78
2021/11/20 10:28:18;;;;;;;1.60;1.10;;;11.60;98.20;;;;;;4900434;29;20587;-76
2021/11/20 10:30:54;;;;;;;1.60;1.10;;;11.60;98.20;;;;;;4897255;29;20473;-76
2021/11/20 10:33:24;;;;;;;1.60;1.10;;;11.60;98.20;;;;;;4885282;29;20492;-76
2021/11/20 10:36:01;;;;;;;1.60;1.10;;;11.60;98.20;;;;;;4887521;29;20507;-78
2021/11/20 10:38:32;;;;;;;1.60;1.20;;;11.60;98.20;;;;;;4897946;29;20493;-79
2021/11/20 10:41:03;;;;;;;1.60;1.20;;;11.60;98.20;;;;;;4888212;29;20483;-76
2021/11/20 10:43:36;;;;;;;1.60;1.20;;;11.60;98.20;;;;;;4907247;29;20870;-77
2021/11/20 10:46:22;;;;;;;1.60;1.10;;;11.70;98.20;;;;;;4888965;29;20469;-78
2021/11/20 10:49:02;;;;;;;1.60;1.00;;;11.70;98.20;;;;;;4904100;29;20479;-77
2021/11/20 10:51:49;;;;;;;1.60;1.10;;;11.70;98.20;;;;;;4892312;29;20491;-77
2021/11/20 10:55:01;;;;;;;1.60;1.10;;;11.70;98.20;;;;;;4900867;29;20484;-77
2021/11/20 10:57:54;;;;;;;1.60;1.10;;;11.70;98.20;;;;;;4885229;29;20882;-78
2021/11/20 11:00:28;;;;;;;1.60;1.10;;;11.70;98.20;;;;;;4896420;29;20494;-77
2021/11/20 11:03:42;;;;;;;1.83;1.50;;;11.70;98.20;;;;;;4897552;29;20486;-76
2021/11/20 11:06:41;;;;;;;1.60;1.10;;;11.70;98.20;;;;;;4846552;29;20509;-76
2021/11/20 11:09:35;;;;;;;1.60;1.10;;;11.70;98.20;;;;;;4900672;29;20477;-77
2021/11/20 11:12:10;;;;;;;1.60;1.20;;;11.70;98.20;;;;;;4879892;29;20485;-77
2021/11/20 11:15:01;;;;;;;1.60;1.10;;;11.70;98.20;;;;;;4892916;29;21005;-77
2021/11/20 11:17:43;;;;;;;1.60;1.10;;;11.70;98.20;;;;;;4896734;29;20494;-77
2021/11/20 11:20:19;;;;;;;2.23;2.03;;;11.60;98.20;;;;;;4897470;29;20566;-77
2021/11/20 11:22:50;;;;;;;1.60;1.10;;;11.60;98.20;;;;;;4899885;29;21036;-79
2021/11/20 11:25:21;;;;;;;2.93;2.70;;;11.60;98.20;;;;;;4898581;29;20476;-77
2021/11/20 11:28:05;;;;;;;1.60;1.10;;;11.60;98.20;;;;;;4903936;29;20522;-77
2021/11/20 11:30:39;;;;;;;1.60;1.10;;;11.60;98.20;;;;;;4897116;29;20548;-80
2021/11/20 11:33:06;;;;;;;1.60;1.10;;;11.60;98.20;;;;;;4887082;29;20488;-78
2021/11/20 11:35:39;;;;;;;1.60;1.10;;;11.60;98.20;;;;;;4898431;29;20487;-76
2021/11/20 11:38:29;;;;;;;1.60;1.10;;;11.60;98.20;;;;;;4900944;29;21006;-77
2021/11/20 11:41:01;;;;;;;1.60;1.13;;;11.60;98.20;;;;;;4886832;29;20473;-77
2021/11/20 11:43:38;;;;;;;1.60;1.10;;;11.60;98.20;;;;;;4906565;29;20604;-76
2021/11/20 11:46:19;;;;;;;1.60;1.10;;;11.60;98.20;;;;;;4885593;29;21021;-76
2021/11/20 11:49:12;;;;;;;1.60;1.10;;;11.50;98.20;;;;;;4892409;29;20912;-74
2021/11/20 11:51:55;;;;;;;1.60;1.07;;;11.50;98.20;;;;;;4882015;29;20543;-74
2021/11/20 11:54:37;;;;;;;1.60;1.10;;;11.60;98.20;;;;;;4894865;29;20509;-76
2021/11/20 11:57:21;;;;;;;1.60;1.10;;;11.60;98.20;;;;;;4882822;29;20757;-77
2021/11/20 12:00:00;;;;;;;1.60;1.10;;;11.60;98.20;;;;;;4893424;29;20583;-75
2021/11/20 12:02:46;;;;;;;1.60;1.00;;;11.60;98.20;;;;;;4879848;29;20869;-76
2021/11/20 12:05:37;;;;;;;1.60;1.10;;;11.60;98.20;;;;;;4896981;29;20814;-76
2021/11/20 12:08:23;;;;;;;1.60;1.10;;;11.50;98.20;;;;;;4902059;29;20492;-76
2021/11/20 12:10:55;;;;;;;1.60;1.10;;;11.50;98.20;;;;;;4886195;29;20508;-76
2021/11/20 12:13:31;;;;;;;1.60;1.10;;;11.50;98.20;;;;;;4895421;29;20477;-74
2021/11/20 12:16:10;;;;;;;1.60;1.00;;;11.50;98.20;;;;;;4887313;29;20554;-75
2021/11/20 12:18:54;;;;;;;1.60;1.00;;;11.50;98.20;;;;;;4911720;29;20543;-75
2021/11/20 12:21:26;;;;;;;1.60;1.10;;;11.60;98.20;;;;;;4890326;29;20488;-74
2021/11/20 12:23:56;;;;;;;1.60;1.00;;;11.60;98.20;;;;;;4907898;29;20477;-75
2021/11/20 12:26:29;;;;;;;1.60;1.10;;;11.60;98.20;;;;;;4890027;29;20984;-76
2021/11/20 12:29:11;;;;;;;1.60;1.10;;;11.60;98.20;;;;;;4905581;29;20928;-75
2021/11/20 12:32:06;;;;;;;1.60;1.10;;;11.60;98.20;;;;;;4893633;29;20498;-76
2021/11/20 12:34:56;;;;;;;1.60;1.10;;;11.60;98.20;;;;;;4900771;29;20860;-76
2021/11/20 12:37:40;;;;;;;1.60;1.10;;;11.60;98.20;;;;;;4895693;29;20587;-76
2021/11/20 12:40:25;;;;;;;1.60;1.17;;;11.60;98.20;;;;;;4897511;29;20493;-75
2021/11/20 12:43:09;;;;;;;1.60;1.10;;;11.60;98.20;;;;;;4901534;29;20493;-75
2021/11/20 12:46:14;;;;;;;3.30;2.80;;;11.60;98.20;;;;;;4895661;29;20599;-77
2021/11/20 12:49:06;;;;;;;1.60;1.10;;;11.60;98.20;;;;;;4874408;29;20492;-75
2021/11/20 12:52:00;;;;;;;1.60;1.10;;;11.60;98.20;;;;;;4891695;29;20494;-75
2021/11/20 12:54:42;;;;;;;1.60;1.00;;;11.60;98.20;;;;;;4901732;29;20911;-76
2021/11/20 12:57:16;;;;;;;1.70;1.47;;;11.60;98.20;;;;;;4897715;29;20574;-75
2021/11/20 12:59:45;;;;;;;1.70;1.30;;;11.60;98.20;;;;;;4902854;29;21007;-75
2021/11/20 13:02:40;;;;;;;1.60;1.10;;;11.50;98.20;;;;;;4898415;29;20870;-76
2021/11/20 13:05:21;;;;;;;1.60;1.20;;;11.50;98.20;;;;;;4896321;29;20477;-76
2021/11/20 13:07:55;;;;;;;1.60;1.10;;;11.50;98.20;;;;;;4889671;29;20484;-75
2021/11/20 13:10:43;;;;;;;1.60;1.20;;;11.50;98.20;;;;;;4900184;29;20635;-74